sensor_id;sensor_type;location;lat;lon;timestamp;P1;durP1;ratioP1;P2;durP2;ratioP2
25511;SDS011;13414;44.534;18.700;2022-08-19T00:01:31;14.73;;;8.98;;
25511;SDS011;13414;44.534;18.700;2022-08-19T00:04:01;11.82;;;8.68;;
25511;SDS011;13414;44.534;18.700;2022-08-19T00:06:31;13.13;;;8.93;;
25511;SDS011;13414;44.534;18.700;2022-08-19T00:08:58;15.77;;;8.50;;
25511;SDS011;13414;44.534;18.700;2022-08-19T00:11:27;12.65;;;8.07;;
25511;SDS011;13414;44.534;18.700;2022-08-19T00:13:55;14.05;;;8.80;;
25511;SDS011;13414;44.534;18.700;2022-08-19T00:16:23;14.07;;;9.23;;
25511;SDS011;13414;44.534;18.700;2022-08-19T00:18:51;12.85;;;8.40;;
25511;SDS011;13414;44.534;18.700;2022-08-19T00:21:18;13.57;;;8.38;;
25511;SDS011;13414;44.534;18.700;2022-08-19T00:23:45;13.27;;;9.02;;
25511;SDS011;13414;44.534;18.700;2022-08-19T00:26:13;11.57;;;8.90;;
25511;SDS011;13414;44.534;18.700;2022-08-19T00:28:42;15.38;;;8.93;;
25511;SDS011;13414;44.534;18.700;2022-08-19T00:31:09;9.52;;;7.15;;
25511;SDS011;13414;44.534;18.700;2022-08-19T00:33:36;13.38;;;8.35;;
25511;SDS011;13414;44.534;18.700;2022-08-19T00:36:05;11.23;;;7.95;;
25511;SDS011;13414;44.534;18.700;2022-08-19T00:38:34;14.15;;;8.55;;
25511;SDS011;13414;44.534;18.700;2022-08-19T00:41:02;15.40;;;7.97;;
25511;SDS011;13414;44.534;18.700;2022-08-19T00:43:30;14.23;;;8.70;;
25511;SDS011;13414;44.534;18.700;2022-08-19T00:45:59;12.35;;;8.50;;
25511;SDS011;13414;44.534;18.700;2022-08-19T00:48:26;11.18;;;8.27;;
25511;SDS011;13414;44.534;18.700;2022-08-19T00:50:53;14.60;;;8.45;;
25511;SDS011;13414;44.534;18.700;2022-08-19T00:53:22;14.32;;;8.32;;
25511;SDS011;13414;44.534;18.700;2022-08-19T00:55:53;20.67;;;12.00;;
25511;SDS011;13414;44.534;18.700;2022-08-19T00:58:24;19.85;;;11.65;;
25511;SDS011;13414;44.534;18.700;2022-08-19T01:00:56;15.48;;;10.52;;
25511;SDS011;13414;44.534;18.700;2022-08-19T01:03:25;14.43;;;8.20;;
25511;SDS011;13414;44.534;18.700;2022-08-19T01:05:53;14.80;;;8.50;;
25511;SDS011;13414;44.534;18.700;2022-08-19T01:08:21;12.30;;;9.05;;
25511;SDS011;13414;44.534;18.700;2022-08-19T01:10:50;11.93;;;8.60;;
25511;SDS011;13414;44.534;18.700;2022-08-19T01:13:21;13.35;;;8.73;;
25511;SDS011;13414;44.534;18.700;2022-08-19T01:15:51;15.57;;;8.88;;
25511;SDS011;13414;44.534;18.700;2022-08-19T01:18:23;18.73;;;9.00;;
25511;SDS011;13414;44.534;18.700;2022-08-19T01:20:51;13.27;;;8.80;;
25511;SDS011;13414;44.534;18.700;2022-08-19T01:23:22;15.73;;;8.52;;
25511;SDS011;13414;44.534;18.700;2022-08-19T01:26:09;15.10;;;7.90;;
25511;SDS011;13414;44.534;18.700;2022-08-19T01:28:37;12.63;;;8.55;;
25511;SDS011;13414;44.534;18.700;2022-08-19T01:31:05;13.65;;;8.38;;
25511;SDS011;13414;44.534;18.700;2022-08-19T01:33:36;14.40;;;8.18;;
25511;SDS011;13414;44.534;18.700;2022-08-19T01:36:05;13.15;;;8.18;;
25511;SDS011;13414;44.534;18.700;2022-08-19T01:38:37;13.85;;;8.27;;
25511;SDS011;13414;44.534;18.700;2022-08-19T01:41:06;14.30;;;8.23;;
25511;SDS011;13414;44.534;18.700;2022-08-19T01:43:33;12.23;;;8.07;;
25511;SDS011;13414;44.534;18.700;2022-08-19T01:46:01;11.30;;;8.63;;
25511;SDS011;13414;44.534;18.700;2022-08-19T01:48:32;14.23;;;9.13;;
25511;SDS011;13414;44.534;18.700;2022-08-19T01:51:01;15.57;;;9.32;;
25511;SDS011;13414;44.534;18.700;2022-08-19T01:53:28;14.88;;;8.57;;
25511;SDS011;13414;44.534;18.700;2022-08-19T01:55:57;11.18;;;8.90;;
25511;SDS011;13414;44.534;18.700;2022-08-19T01:58:26;14.98;;;8.93;;
25511;SDS011;13414;44.534;18.700;2022-08-19T02:00:56;12.38;;;8.13;;
25511;SDS011;13414;44.534;18.700;2022-08-19T02:03:24;14.00;;;8.30;;
25511;SDS011;13414;44.534;18.700;2022-08-19T02:05:54;11.90;;;8.25;;
25511;SDS011;13414;44.534;18.700;2022-08-19T02:08:22;13.68;;;7.93;;
25511;SDS011;13414;44.534;18.700;2022-08-19T02:10:50;14.00;;;8.00;;
25511;SDS011;13414;44.534;18.700;2022-08-19T02:13:18;13.02;;;8.23;;
25511;SDS011;13414;44.534;18.700;2022-08-19T02:15:46;17.48;;;8.32;;
25511;SDS011;13414;44.534;18.700;2022-08-19T02:18:13;11.95;;;8.45;;
25511;SDS011;13414;44.534;18.700;2022-08-19T02:20:41;16.27;;;8.40;;
25511;SDS011;13414;44.534;18.700;2022-08-19T02:23:10;17.00;;;9.27;;
25511;SDS011;13414;44.534;18.700;2022-08-19T02:25:38;10.43;;;8.38;;
25511;SDS011;13414;44.534;18.700;2022-08-19T02:28:06;15.07;;;8.73;;
25511;SDS011;13414;44.534;18.700;2022-08-19T02:30:34;17.52;;;8.82;;
25511;SDS011;13414;44.534;18.700;2022-08-19T02:33:02;15.27;;;8.75;;
25511;SDS011;13414;44.534;18.700;2022-08-19T02:35:29;14.18;;;8.02;;
25511;SDS011;13414;44.534;18.700;2022-08-19T02:37:57;12.18;;;8.25;;
25511;SDS011;13414;44.534;18.700;2022-08-19T02:40:47;12.30;;;7.40;;
25511;SDS011;13414;44.534;18.700;2022-08-19T02:43:16;10.77;;;6.90;;
25511;SDS011;13414;44.534;18.700;2022-08-19T02:45:48;13.60;;;7.85;;
25511;SDS011;13414;44.534;18.700;2022-08-19T02:48:16;12.77;;;7.93;;
25511;SDS011;13414;44.534;18.700;2022-08-19T02:50:45;10.30;;;7.57;;
25511;SDS011;13414;44.534;18.700;2022-08-19T02:53:16;14.48;;;7.88;;
25511;SDS011;13414;44.534;18.700;2022-08-19T02:55:43;13.05;;;8.55;;
25511;SDS011;13414;44.534;18.700;2022-08-19T02:58:12;11.70;;;8.43;;
25511;SDS011;13414;44.534;18.700;2022-08-19T03:00:43;11.40;;;7.88;;
25511;SDS011;13414;44.534;18.700;2022-08-19T03:03:13;13.57;;;7.75;;
25511;SDS011;13414;44.534;18.700;2022-08-19T03:05:41;12.50;;;8.07;;
25511;SDS011;13414;44.534;18.700;2022-08-19T03:08:08;13.65;;;8.32;;
25511;SDS011;13414;44.534;18.700;2022-08-19T03:10:41;12.40;;;8.27;;
25511;SDS011;13414;44.534;18.700;2022-08-19T03:13:11;13.55;;;8.43;;
25511;SDS011;13414;44.534;18.700;2022-08-19T03:15:40;12.63;;;8.27;;
25511;SDS011;13414;44.534;18.700;2022-08-19T03:18:08;13.27;;;8.30;;
25511;SDS011;13414;44.534;18.700;2022-08-19T03:20:41;11.88;;;8.68;;
25511;SDS011;13414;44.534;18.700;2022-08-19T03:23:09;16.85;;;9.25;;
25511;SDS011;13414;44.534;18.700;2022-08-19T03:25:38;13.73;;;8.73;;
25511;SDS011;13414;44.534;18.700;2022-08-19T03:28:08;13.25;;;8.90;;
25511;SDS011;13414;44.534;18.700;2022-08-19T03:30:37;12.25;;;7.78;;
25511;SDS011;13414;44.534;18.700;2022-08-19T03:33:06;9.45;;;7.38;;
25511;SDS011;13414;44.534;18.700;2022-08-19T03:35:34;10.45;;;7.15;;
25511;SDS011;13414;44.534;18.700;2022-08-19T03:38:04;14.02;;;7.20;;
25511;SDS011;13414;44.534;18.700;2022-08-19T03:40:32;14.13;;;7.47;;
25511;SDS011;13414;44.534;18.700;2022-08-19T03:43:03;9.73;;;7.43;;
25511;SDS011;13414;44.534;18.700;2022-08-19T03:45:30;12.85;;;7.63;;
25511;SDS011;13414;44.534;18.700;2022-08-19T03:47:58;14.00;;;7.80;;
25511;SDS011;13414;44.534;18.700;2022-08-19T03:50:25;14.43;;;9.57;;
25511;SDS011;13414;44.534;18.700;2022-08-19T03:52:53;12.60;;;9.18;;
25511;SDS011;13414;44.534;18.700;2022-08-19T03:55:22;13.75;;;9.23;;
25511;SDS011;13414;44.534;18.700;2022-08-19T03:57:49;18.02;;;9.45;;
25511;SDS011;13414;44.534;18.700;2022-08-19T04:00:16;16.52;;;9.98;;
25511;SDS011;13414;44.534;18.700;2022-08-19T04:02:44;13.15;;;9.77;;
25511;SDS011;13414;44.534;18.700;2022-08-19T04:05:11;15.70;;;9.73;;
25511;SDS011;13414;44.534;18.700;2022-08-19T04:07:40;16.42;;;9.88;;
25511;SDS011;13414;44.534;18.700;2022-08-19T04:10:07;11.63;;;9.02;;
25511;SDS011;13414;44.534;18.700;2022-08-19T04:12:36;15.93;;;8.88;;
25511;SDS011;13414;44.534;18.700;2022-08-19T04:15:04;11.93;;;8.40;;
25511;SDS011;13414;44.534;18.700;2022-08-19T04:17:33;14.32;;;8.77;;
25511;SDS011;13414;44.534;18.700;2022-08-19T04:20:00;14.60;;;8.57;;
25511;SDS011;13414;44.534;18.700;2022-08-19T04:22:28;12.60;;;8.35;;
25511;SDS011;13414;44.534;18.700;2022-08-19T04:24:55;16.50;;;8.77;;
25511;SDS011;13414;44.534;18.700;2022-08-19T04:27:22;13.75;;;8.05;;
25511;SDS011;13414;44.534;18.700;2022-08-19T04:29:51;17.20;;;9.57;;
25511;SDS011;13414;44.534;18.700;2022-08-19T04:32:20;15.77;;;8.60;;
25511;SDS011;13414;44.534;18.700;2022-08-19T04:34:48;18.10;;;8.45;;
25511;SDS011;13414;44.534;18.700;2022-08-19T04:37:15;15.85;;;8.32;;
25511;SDS011;13414;44.534;18.700;2022-08-19T04:39:42;18.98;;;8.30;;
25511;SDS011;13414;44.534;18.700;2022-08-19T04:42:27;14.10;;;9.00;;
25511;SDS011;13414;44.534;18.700;2022-08-19T04:45:09;16.88;;;8.02;;
25511;SDS011;13414;44.534;18.700;2022-08-19T04:47:40;17.85;;;8.90;;
25511;SDS011;13414;44.534;18.700;2022-08-19T04:50:08;10.85;;;8.27;;
25511;SDS011;13414;44.534;18.700;2022-08-19T04:52:37;12.80;;;8.23;;
25511;SDS011;13414;44.534;18.700;2022-08-19T04:55:08;12.13;;;7.95;;
25511;SDS011;13414;44.534;18.700;2022-08-19T04:57:36;15.45;;;8.98;;
25511;SDS011;13414;44.534;18.700;2022-08-19T05:00:06;13.98;;;8.05;;
25511;SDS011;13414;44.534;18.700;2022-08-19T05:02:36;13.32;;;7.60;;
25511;SDS011;13414;44.534;18.700;2022-08-19T05:05:04;14.18;;;7.75;;
25511;SDS011;13414;44.534;18.700;2022-08-19T05:07:32;19.23;;;8.75;;
25511;SDS011;13414;44.534;18.700;2022-08-19T05:09:59;17.73;;;8.00;;
25511;SDS011;13414;44.534;18.700;2022-08-19T05:12:27;14.65;;;7.53;;
25511;SDS011;13414;44.534;18.700;2022-08-19T05:14:55;15.43;;;8.45;;
25511;SDS011;13414;44.534;18.700;2022-08-19T05:17:24;22.83;;;11.23;;
25511;SDS011;13414;44.534;18.700;2022-08-19T05:19:53;18.20;;;11.15;;
25511;SDS011;13414;44.534;18.700;2022-08-19T05:22:38;17.88;;;12.18;;
25511;SDS011;13414;44.534;18.700;2022-08-19T05:25:07;13.20;;;9.18;;
25511;SDS011;13414;44.534;18.700;2022-08-19T05:27:37;17.40;;;8.77;;
25511;SDS011;13414;44.534;18.700;2022-08-19T05:30:05;21.15;;;11.10;;
25511;SDS011;13414;44.534;18.700;2022-08-19T05:32:35;15.02;;;8.23;;
25511;SDS011;13414;44.534;18.700;2022-08-19T05:35:02;16.30;;;9.32;;
25511;SDS011;13414;44.534;18.700;2022-08-19T05:37:30;16.23;;;8.70;;
25511;SDS011;13414;44.534;18.700;2022-08-19T05:39:58;25.17;;;9.30;;
25511;SDS011;13414;44.534;18.700;2022-08-19T05:42:25;15.10;;;8.70;;
25511;SDS011;13414;44.534;18.700;2022-08-19T05:44:52;22.80;;;13.30;;
25511;SDS011;13414;44.534;18.700;2022-08-19T05:47:20;19.55;;;13.25;;
25511;SDS011;13414;44.534;18.700;2022-08-19T05:49:49;26.80;;;14.43;;
25511;SDS011;13414;44.534;18.700;2022-08-19T05:52:17;19.75;;;12.77;;
25511;SDS011;13414;44.534;18.700;2022-08-19T05:54:45;16.88;;;11.27;;
25511;SDS011;13414;44.534;18.700;2022-08-19T05:57:16;22.63;;;13.40;;
25511;SDS011;13414;44.534;18.700;2022-08-19T05:59:43;21.00;;;11.43;;
25511;SDS011;13414;44.534;18.700;2022-08-19T06:02:16;26.15;;;14.20;;
25511;SDS011;13414;44.534;18.700;2022-08-19T06:04:44;22.13;;;11.85;;
25511;SDS011;13414;44.534;18.700;2022-08-19T06:07:12;23.83;;;12.98;;
25511;SDS011;13414;44.534;18.700;2022-08-19T06:09:40;14.35;;;8.70;;
25511;SDS011;13414;44.534;18.700;2022-08-19T06:12:08;15.48;;;8.90;;
25511;SDS011;13414;44.534;18.700;2022-08-19T06:14:36;16.98;;;8.35;;
25511;SDS011;13414;44.534;18.700;2022-08-19T06:17:04;15.00;;;7.05;;
25511;SDS011;13414;44.534;18.700;2022-08-19T06:19:31;12.80;;;7.72;;
25511;SDS011;13414;44.534;18.700;2022-08-19T06:21:59;12.65;;;7.90;;
25511;SDS011;13414;44.534;18.700;2022-08-19T06:24:28;16.85;;;7.45;;
25511;SDS011;13414;44.534;18.700;2022-08-19T06:26:57;12.75;;;7.00;;
25511;SDS011;13414;44.534;18.700;2022-08-19T06:29:26;18.88;;;11.05;;
25511;SDS011;13414;44.534;18.700;2022-08-19T06:31:55;16.92;;;9.32;;
25511;SDS011;13414;44.534;18.700;2022-08-19T06:34:25;17.85;;;8.00;;
25511;SDS011;13414;44.534;18.700;2022-08-19T06:36:54;19.73;;;10.80;;
25511;SDS011;13414;44.534;18.700;2022-08-19T06:39:28;19.73;;;8.15;;
25511;SDS011;13414;44.534;18.700;2022-08-19T06:41:58;15.57;;;7.68;;
25511;SDS011;13414;44.534;18.700;2022-08-19T06:44:29;12.27;;;7.70;;
25511;SDS011;13414;44.534;18.700;2022-08-19T06:47:00;16.23;;;7.05;;
25511;SDS011;13414;44.534;18.700;2022-08-19T06:49:28;19.58;;;8.00;;
25511;SDS011;13414;44.534;18.700;2022-08-19T06:51:56;16.40;;;8.50;;
25511;SDS011;13414;44.534;18.700;2022-08-19T06:54:24;15.05;;;7.78;;
25511;SDS011;13414;44.534;18.700;2022-08-19T06:56:53;17.80;;;9.07;;
25511;SDS011;13414;44.534;18.700;2022-08-19T06:59:22;20.63;;;11.48;;
25511;SDS011;13414;44.534;18.700;2022-08-19T07:01:53;23.92;;;10.07;;
25511;SDS011;13414;44.534;18.700;2022-08-19T07:04:23;15.95;;;9.15;;
25511;SDS011;13414;44.534;18.700;2022-08-19T07:06:56;19.20;;;10.38;;
25511;SDS011;13414;44.534;18.700;2022-08-19T07:09:25;23.98;;;9.82;;
25511;SDS011;13414;44.534;18.700;2022-08-19T07:11:54;27.70;;;11.95;;
25511;SDS011;13414;44.534;18.700;2022-08-19T07:14:23;26.13;;;12.60;;
25511;SDS011;13414;44.534;18.700;2022-08-19T07:16:52;24.50;;;13.05;;
25511;SDS011;13414;44.534;18.700;2022-08-19T07:19:21;23.45;;;11.95;;
25511;SDS011;13414;44.534;18.700;2022-08-19T07:21:51;29.15;;;17.23;;
25511;SDS011;13414;44.534;18.700;2022-08-19T07:24:19;27.58;;;11.73;;
25511;SDS011;13414;44.534;18.700;2022-08-19T07:26:48;21.02;;;10.82;;
25511;SDS011;13414;44.534;18.700;2022-08-19T07:29:18;21.38;;;12.27;;
25511;SDS011;13414;44.534;18.700;2022-08-19T07:31:48;18.67;;;13.27;;
25511;SDS011;13414;44.534;18.700;2022-08-19T07:34:16;26.88;;;12.75;;
25511;SDS011;13414;44.534;18.700;2022-08-19T07:36:44;23.52;;;12.07;;
25511;SDS011;13414;44.534;18.700;2022-08-19T07:39:13;16.75;;;9.07;;
25511;SDS011;13414;44.534;18.700;2022-08-19T07:41:41;23.77;;;13.32;;
25511;SDS011;13414;44.534;18.700;2022-08-19T07:44:09;25.63;;;15.82;;
25511;SDS011;13414;44.534;18.700;2022-08-19T07:46:40;25.80;;;16.38;;
25511;SDS011;13414;44.534;18.700;2022-08-19T07:49:11;25.55;;;14.52;;
25511;SDS011;13414;44.534;18.700;2022-08-19T07:51:43;27.95;;;19.20;;
25511;SDS011;13414;44.534;18.700;2022-08-19T07:54:11;30.27;;;18.90;;
25511;SDS011;13414;44.534;18.700;2022-08-19T07:56:38;26.20;;;17.77;;
25511;SDS011;13414;44.534;18.700;2022-08-19T07:59:06;22.15;;;13.52;;
25511;SDS011;13414;44.534;18.700;2022-08-19T08:01:34;27.45;;;16.17;;
25511;SDS011;13414;44.534;18.700;2022-08-19T08:04:03;25.38;;;15.68;;
25511;SDS011;13414;44.534;18.700;2022-08-19T08:06:48;24.27;;;13.75;;
25511;SDS011;13414;44.534;18.700;2022-08-19T08:09:35;22.85;;;13.80;;
25511;SDS011;13414;44.534;18.700;2022-08-19T08:12:04;18.15;;;11.23;;
25511;SDS011;13414;44.534;18.700;2022-08-19T08:14:34;27.50;;;15.27;;
25511;SDS011;13414;44.534;18.700;2022-08-19T08:17:04;25.33;;;14.75;;
25511;SDS011;13414;44.534;18.700;2022-08-19T08:19:33;30.95;;;16.50;;
25511;SDS011;13414;44.534;18.700;2022-08-19T08:22:00;28.95;;;16.52;;
25511;SDS011;13414;44.534;18.700;2022-08-19T08:24:31;24.05;;;13.68;;
25511;SDS011;13414;44.534;18.700;2022-08-19T08:26:59;28.20;;;14.93;;
25511;SDS011;13414;44.534;18.700;2022-08-19T08:29:28;22.23;;;13.50;;
25511;SDS011;13414;44.534;18.700;2022-08-19T08:31:56;27.38;;;12.18;;
25511;SDS011;13414;44.534;18.700;2022-08-19T08:34:24;21.10;;;12.85;;
25511;SDS011;13414;44.534;18.700;2022-08-19T08:36:52;25.15;;;15.77;;
25511;SDS011;13414;44.534;18.700;2022-08-19T08:39:20;25.45;;;12.45;;
25511;SDS011;13414;44.534;18.700;2022-08-19T08:41:50;26.25;;;17.83;;
25511;SDS011;13414;44.534;18.700;2022-08-19T08:44:22;22.88;;;10.23;;
25511;SDS011;13414;44.534;18.700;2022-08-19T08:46:56;20.38;;;9.80;;
25511;SDS011;13414;44.534;18.700;2022-08-19T08:49:29;22.38;;;11.45;;
25511;SDS011;13414;44.534;18.700;2022-08-19T08:52:04;23.98;;;9.75;;
25511;SDS011;13414;44.534;18.700;2022-08-19T08:54:34;22.60;;;10.23;;
25511;SDS011;13414;44.534;18.700;2022-08-19T08:57:07;27.20;;;9.88;;
25511;SDS011;13414;44.534;18.700;2022-08-19T08:59:39;27.58;;;11.23;;
25511;SDS011;13414;44.534;18.700;2022-08-19T09:02:09;21.70;;;10.93;;
25511;SDS011;13414;44.534;18.700;2022-08-19T09:04:36;25.42;;;12.43;;
25511;SDS011;13414;44.534;18.700;2022-08-19T09:07:19;28.80;;;12.75;;
25511;SDS011;13414;44.534;18.700;2022-08-19T09:09:54;26.90;;;11.40;;
25511;SDS011;13414;44.534;18.700;2022-08-19T09:12:31;20.75;;;9.27;;
25511;SDS011;13414;44.534;18.700;2022-08-19T09:15:09;24.75;;;11.45;;
25511;SDS011;13414;44.534;18.700;2022-08-19T09:17:39;30.10;;;14.05;;
25511;SDS011;13414;44.534;18.700;2022-08-19T09:20:08;33.15;;;12.63;;
25511;SDS011;13414;44.534;18.700;2022-08-19T09:22:43;23.00;;;10.18;;
25511;SDS011;13414;44.534;18.700;2022-08-19T09:25:13;23.38;;;12.27;;
25511;SDS011;13414;44.534;18.700;2022-08-19T09:27:43;24.38;;;8.75;;
25511;SDS011;13414;44.534;18.700;2022-08-19T09:30:14;22.70;;;9.27;;
25511;SDS011;13414;44.534;18.700;2022-08-19T09:32:46;22.65;;;10.75;;
25511;SDS011;13414;44.534;18.700;2022-08-19T09:35:14;23.52;;;9.10;;
25511;SDS011;13414;44.534;18.700;2022-08-19T09:37:45;26.73;;;11.80;;
25511;SDS011;13414;44.534;18.700;2022-08-19T09:40:12;20.02;;;9.52;;
25511;SDS011;13414;44.534;18.700;2022-08-19T09:42:39;22.60;;;10.93;;
25511;SDS011;13414;44.534;18.700;2022-08-19T09:45:09;27.58;;;13.02;;
25511;SDS011;13414;44.534;18.700;2022-08-19T09:47:36;26.55;;;11.00;;
25511;SDS011;13414;44.534;18.700;2022-08-19T09:50:04;27.30;;;12.75;;
25511;SDS011;13414;44.534;18.700;2022-08-19T09:52:33;18.17;;;9.63;;
25511;SDS011;13414;44.534;18.700;2022-08-19T09:55:03;24.65;;;10.55;;
25511;SDS011;13414;44.534;18.700;2022-08-19T09:57:31;28.60;;;12.27;;
25511;SDS011;13414;44.534;18.700;2022-08-19T09:59:59;39.83;;;22.67;;
25511;SDS011;13414;44.534;18.700;2022-08-19T10:02:34;23.98;;;11.82;;
25511;SDS011;13414;44.534;18.700;2022-08-19T10:05:02;23.00;;;11.23;;
25511;SDS011;13414;44.534;18.700;2022-08-19T10:07:48;20.58;;;11.98;;
25511;SDS011;13414;44.534;18.700;2022-08-19T10:10:17;25.25;;;13.32;;
25511;SDS011;13414;44.534;18.700;2022-08-19T10:12:44;34.17;;;15.13;;
25511;SDS011;13414;44.534;18.700;2022-08-19T10:15:12;29.20;;;14.75;;
25511;SDS011;13414;44.534;18.700;2022-08-19T10:17:40;30.27;;;13.13;;
25511;SDS011;13414;44.534;18.700;2022-08-19T10:20:08;27.92;;;13.35;;
25511;SDS011;13414;44.534;18.700;2022-08-19T10:22:36;28.15;;;11.75;;
25511;SDS011;13414;44.534;18.700;2022-08-19T10:25:04;26.23;;;13.02;;
25511;SDS011;13414;44.534;18.700;2022-08-19T10:27:34;50.50;;;32.10;;
25511;SDS011;13414;44.534;18.700;2022-08-19T10:30:03;30.92;;;14.98;;
25511;SDS011;13414;44.534;18.700;2022-08-19T10:32:31;29.95;;;12.23;;
25511;SDS011;13414;44.534;18.700;2022-08-19T10:34:59;30.05;;;13.80;;
25511;SDS011;13414;44.534;18.700;2022-08-19T10:37:27;28.77;;;14.90;;
25511;SDS011;13414;44.534;18.700;2022-08-19T10:39:55;35.25;;;14.30;;
25511;SDS011;13414;44.534;18.700;2022-08-19T10:42:23;27.02;;;12.52;;
25511;SDS011;13414;44.534;18.700;2022-08-19T10:44:52;23.45;;;11.70;;
25511;SDS011;13414;44.534;18.700;2022-08-19T10:47:19;29.15;;;12.98;;
25511;SDS011;13414;44.534;18.700;2022-08-19T10:49:48;25.88;;;13.07;;
25511;SDS011;13414;44.534;18.700;2022-08-19T10:52:33;27.90;;;14.18;;
25511;SDS011;13414;44.534;18.700;2022-08-19T10:55:00;32.80;;;14.77;;
25511;SDS011;13414;44.534;18.700;2022-08-19T10:57:45;33.30;;;13.80;;
25511;SDS011;13414;44.534;18.700;2022-08-19T11:00:14;29.15;;;10.82;;
25511;SDS011;13414;44.534;18.700;2022-08-19T11:02:42;31.90;;;9.48;;
25511;SDS011;13414;44.534;18.700;2022-08-19T11:05:09;33.03;;;10.20;;
25511;SDS011;13414;44.534;18.700;2022-08-19T11:07:37;28.10;;;9.77;;
25511;SDS011;13414;44.534;18.700;2022-08-19T11:10:05;38.58;;;15.68;;
25511;SDS011;13414;44.534;18.700;2022-08-19T11:12:36;32.90;;;15.20;;
25511;SDS011;13414;44.534;18.700;2022-08-19T11:15:05;28.15;;;9.32;;
25511;SDS011;13414;44.534;18.700;2022-08-19T11:17:37;23.02;;;9.30;;
25511;SDS011;13414;44.534;18.700;2022-08-19T11:20:08;24.60;;;9.20;;
25511;SDS011;13414;44.534;18.700;2022-08-19T11:22:37;31.27;;;10.73;;
25511;SDS011;13414;44.534;18.700;2022-08-19T11:25:05;27.50;;;9.50;;
25511;SDS011;13414;44.534;18.700;2022-08-19T11:27:36;24.08;;;12.55;;
25511;SDS011;13414;44.534;18.700;2022-08-19T11:30:07;29.83;;;11.45;;
25511;SDS011;13414;44.534;18.700;2022-08-19T11:32:37;26.77;;;10.95;;
25511;SDS011;13414;44.534;18.700;2022-08-19T11:35:05;24.23;;;12.10;;
25511;SDS011;13414;44.534;18.700;2022-08-19T11:37:33;29.98;;;9.95;;
25511;SDS011;13414;44.534;18.700;2022-08-19T11:40:04;24.38;;;10.13;;
25511;SDS011;13414;44.534;18.700;2022-08-19T11:42:32;28.33;;;9.25;;
25511;SDS011;13414;44.534;18.700;2022-08-19T11:45:17;26.33;;;10.13;;
25511;SDS011;13414;44.534;18.700;2022-08-19T11:47:46;30.80;;;12.55;;
25511;SDS011;13414;44.534;18.700;2022-08-19T11:50:13;32.85;;;11.68;;
25511;SDS011;13414;44.534;18.700;2022-08-19T11:52:41;27.08;;;11.23;;
25511;SDS011;13414;44.534;18.700;2022-08-19T11:55:09;27.60;;;10.82;;
25511;SDS011;13414;44.534;18.700;2022-08-19T11:57:36;31.10;;;14.25;;
25511;SDS011;13414;44.534;18.700;2022-08-19T12:00:06;27.70;;;10.23;;
25511;SDS011;13414;44.534;18.700;2022-08-19T12:02:35;24.20;;;8.18;;
25511;SDS011;13414;44.534;18.700;2022-08-19T12:05:04;26.75;;;8.07;;
25511;SDS011;13414;44.534;18.700;2022-08-19T12:07:32;24.20;;;9.10;;
25511;SDS011;13414;44.534;18.700;2022-08-19T12:10:01;22.73;;;8.45;;
25511;SDS011;13414;44.534;18.700;2022-08-19T12:12:28;26.63;;;9.32;;
25511;SDS011;13414;44.534;18.700;2022-08-19T12:14:55;27.33;;;9.27;;
25511;SDS011;13414;44.534;18.700;2022-08-19T12:17:24;19.55;;;8.93;;
25511;SDS011;13414;44.534;18.700;2022-08-19T12:19:52;24.60;;;9.05;;
25511;SDS011;13414;44.534;18.700;2022-08-19T12:22:20;21.83;;;9.48;;
25511;SDS011;13414;44.534;18.700;2022-08-19T12:24:48;27.15;;;9.30;;
25511;SDS011;13414;44.534;18.700;2022-08-19T12:27:17;23.75;;;9.60;;
25511;SDS011;13414;44.534;18.700;2022-08-19T12:29:45;31.98;;;16.50;;
25511;SDS011;13414;44.534;18.700;2022-08-19T12:32:12;25.88;;;11.23;;
25511;SDS011;13414;44.534;18.700;2022-08-19T12:34:39;27.25;;;9.85;;
25511;SDS011;13414;44.534;18.700;2022-08-19T12:37:07;21.60;;;7.00;;
25511;SDS011;13414;44.534;18.700;2022-08-19T12:39:39;26.95;;;8.45;;
25511;SDS011;13414;44.534;18.700;2022-08-19T12:42:08;21.17;;;8.25;;
25511;SDS011;13414;44.534;18.700;2022-08-19T12:44:37;25.63;;;10.02;;
25511;SDS011;13414;44.534;18.700;2022-08-19T12:47:06;24.92;;;10.63;;
25511;SDS011;13414;44.534;18.700;2022-08-19T12:49:34;22.10;;;7.88;;
25511;SDS011;13414;44.534;18.700;2022-08-19T12:52:03;22.25;;;7.45;;
25511;SDS011;13414;44.534;18.700;2022-08-19T12:54:32;22.50;;;8.85;;
25511;SDS011;13414;44.534;18.700;2022-08-19T12:57:04;21.05;;;10.30;;
25511;SDS011;13414;44.534;18.700;2022-08-19T12:59:33;21.50;;;9.70;;
25511;SDS011;13414;44.534;18.700;2022-08-19T13:02:01;26.20;;;10.38;;
25511;SDS011;13414;44.534;18.700;2022-08-19T13:04:30;26.70;;;10.07;;
25511;SDS011;13414;44.534;18.700;2022-08-19T13:07:00;25.15;;;8.95;;
25511;SDS011;13414;44.534;18.700;2022-08-19T13:09:27;21.42;;;8.35;;
25511;SDS011;13414;44.534;18.700;2022-08-19T13:11:54;22.35;;;8.00;;
25511;SDS011;13414;44.534;18.700;2022-08-19T13:14:24;27.52;;;10.45;;
25511;SDS011;13414;44.534;18.700;2022-08-19T13:16:51;17.25;;;7.63;;
25511;SDS011;13414;44.534;18.700;2022-08-19T13:19:18;27.83;;;8.82;;
25511;SDS011;13414;44.534;18.700;2022-08-19T13:21:49;23.77;;;8.93;;
25511;SDS011;13414;44.534;18.700;2022-08-19T13:24:16;23.70;;;8.43;;
25511;SDS011;13414;44.534;18.700;2022-08-19T13:26:44;23.98;;;8.13;;
25511;SDS011;13414;44.534;18.700;2022-08-19T13:29:11;22.98;;;8.23;;
25511;SDS011;13414;44.534;18.700;2022-08-19T13:31:57;23.40;;;8.18;;
25511;SDS011;13414;44.534;18.700;2022-08-19T13:34:42;19.77;;;7.18;;
25511;SDS011;13414;44.534;18.700;2022-08-19T13:37:11;22.73;;;8.10;;
25511;SDS011;13414;44.534;18.700;2022-08-19T13:39:39;23.40;;;8.65;;
25511;SDS011;13414;44.534;18.700;2022-08-19T13:42:06;27.17;;;11.75;;
25511;SDS011;13414;44.534;18.700;2022-08-19T13:44:35;21.92;;;8.27;;
25511;SDS011;13414;44.534;18.700;2022-08-19T13:47:04;22.25;;;8.55;;
25511;SDS011;13414;44.534;18.700;2022-08-19T13:49:33;22.65;;;9.98;;
25511;SDS011;13414;44.534;18.700;2022-08-19T13:52:02;21.45;;;8.32;;
25511;SDS011;13414;44.534;18.700;2022-08-19T13:54:30;22.45;;;8.77;;
25511;SDS011;13414;44.534;18.700;2022-08-19T13:56:58;28.27;;;8.98;;
25511;SDS011;13414;44.534;18.700;2022-08-19T13:59:25;25.02;;;8.48;;
25511;SDS011;13414;44.534;18.700;2022-08-19T14:01:56;28.88;;;13.77;;
25511;SDS011;13414;44.534;18.700;2022-08-19T14:04:26;25.35;;;8.85;;
25511;SDS011;13414;44.534;18.700;2022-08-19T14:06:54;26.45;;;9.05;;
25511;SDS011;13414;44.534;18.700;2022-08-19T14:09:21;25.95;;;8.98;;
25511;SDS011;13414;44.534;18.700;2022-08-19T14:11:48;27.48;;;8.23;;
25511;SDS011;13414;44.534;18.700;2022-08-19T14:14:16;23.13;;;8.23;;
25511;SDS011;13414;44.534;18.700;2022-08-19T14:16:43;26.48;;;9.93;;
25511;SDS011;13414;44.534;18.700;2022-08-19T14:19:11;24.55;;;9.52;;
25511;SDS011;13414;44.534;18.700;2022-08-19T14:21:39;25.40;;;8.07;;
25511;SDS011;13414;44.534;18.700;2022-08-19T14:24:07;27.33;;;8.43;;
25511;SDS011;13414;44.534;18.700;2022-08-19T14:26:35;26.13;;;9.48;;
25511;SDS011;13414;44.534;18.700;2022-08-19T14:29:02;26.92;;;9.07;;